createdAt,value
2017-05-28T00:00:14.214Z,50.98
2017-05-28T00:00:54.703Z,51.17
2017-05-28T00:01:35.185Z,51.17
2017-05-28T00:02:15.681Z,51.17
2017-05-28T00:02:56.165Z,50.59
2017-05-28T00:03:36.643Z,50.88
2017-05-28T00:04:17.138Z,50.59
2017-05-28T00:04:57.647Z,50.78
2017-05-28T00:05:38.146Z,50.59
2017-05-28T00:06:18.644Z,50.98
2017-05-28T00:06:59.155Z,50.59
2017-05-28T00:07:40.601Z,50.88
2017-05-28T00:08:21.111Z,51.65
2017-05-28T00:09:01.600Z,50.88
2017-05-28T00:09:42.087Z,50.59
2017-05-28T00:10:22.558Z,50.49
2017-05-28T00:11:03.055Z,50.59
2017-05-28T00:11:43.543Z,50.21
2017-05-28T00:12:24.028Z,50.3
2017-05-28T00:13:04.530Z,50.3
2017-05-28T00:13:45.012Z,50.3
2017-05-28T00:14:25.510Z,50.01
2017-05-28T00:15:06.003Z,50.21
2017-05-28T00:15:46.490Z,50.11
2017-05-28T00:17:59.210Z,50.01
2017-05-28T00:18:39.700Z,50.3
2017-05-28T00:19:20.171Z,50.21
2017-05-28T00:20:00.662Z,50.21
2017-05-28T00:20:42.003Z,50.3
2017-05-28T00:21:22.496Z,49.91
2017-05-28T00:22:03.007Z,50.49
2017-05-28T00:22:43.495Z,50.49
2017-05-28T00:23:24.509Z,50.4
2017-05-28T00:24:04.988Z,50.21
2017-05-28T00:24:45.470Z,50.49
2017-05-28T00:25:25.978Z,49.91
2017-05-28T00:26:07.262Z,50.49
2017-05-28T00:26:47.757Z,50.59
2017-05-28T00:27:28.912Z,50.69
2017-05-28T00:28:09.422Z,50.37
2017-05-28T00:28:49.914Z,50.21
2017-05-28T00:29:30.407Z,50.11
2017-05-28T00:30:10.897Z,50.3
2017-05-28T00:30:52.188Z,50.47
2017-05-28T00:31:32.717Z,50.95
2017-05-28T00:32:13.165Z,50.18
2017-05-28T00:32:53.648Z,50.27
2017-05-28T00:33:34.165Z,50.85
2017-05-28T00:34:14.671Z,50.57
2017-05-28T00:34:55.140Z,50.4
2017-05-28T00:35:35.623Z,50.49
2017-05-28T00:36:16.122Z,50.59
2017-05-28T00:36:56.613Z,50.01
2017-05-28T00:37:37.098Z,49.73
2017-05-28T00:38:18.285Z,50.4
2017-05-28T00:38:59.470Z,49.89
2017-05-28T00:39:39.928Z,50.09
2017-05-28T00:40:20.427Z,50.01
2017-05-28T00:41:00.932Z,49.91
2017-05-28T00:41:42.207Z,50.01
2017-05-28T00:42:22.694Z,49.99
2017-05-28T00:43:03.188Z,50.4
2017-05-28T00:43:43.686Z,50.37
2017-05-28T00:44:24.176Z,50.27
2017-05-28T00:45:04.665Z,50.85
2017-05-28T00:45:45.150Z,50.57
2017-05-28T00:46:25.645Z,50.85
2017-05-28T00:47:07.021Z,50.57
2017-05-28T00:47:47.516Z,50.21
2017-05-28T00:48:28.012Z,50.27
2017-05-28T00:49:08.505Z,49.73
2017-05-28T00:49:49.612Z,50.4
2017-05-28T00:50:30.789Z,49.91
2017-05-28T00:51:11.279Z,50.01
2017-05-28T00:51:51.774Z,50.59
2017-05-28T00:52:32.269Z,49.63
2017-05-28T00:53:13.422Z,50.47
2017-05-28T00:53:53.912Z,50.27
2017-05-28T00:54:34.412Z,50.85
2017-05-28T00:55:14.917Z,50.57
2017-05-28T00:55:55.407Z,50.95
2017-05-28T00:56:35.909Z,50.85
2017-05-28T00:57:16.403Z,50.66
2017-05-28T00:57:56.908Z,51.05
2017-05-28T00:58:37.415Z,50.95
2017-05-28T00:59:17.890Z,50.85
2017-05-28T00:59:58.389Z,50.66
2017-05-28T01:00:38.885Z,50.85
2017-05-28T01:01:19.396Z,50.27
2017-05-28T01:01:59.878Z,50.85
2017-05-28T01:02:40.374Z,51.24
2017-05-28T01:03:20.881Z,51.05
2017-05-28T01:04:02.200Z,51.05
2017-05-28T01:04:42.701Z,50.95
2017-05-28T01:05:23.193Z,50.76
2017-05-28T01:06:05.293Z,51.05
2017-05-28T01:06:45.790Z,50.76
2017-05-28T01:07:26.295Z,51.24
2017-05-28T01:08:06.786Z,51.34
2017-05-28T01:08:47.265Z,51.5
2017-05-28T01:09:27.755Z,51.79
2017-05-28T01:10:08.252Z,51.98
2017-05-28T01:10:48.734Z,51.34
2017-05-28T01:11:30.020Z,51.72
2017-05-28T01:12:10.533Z,51.7
2017-05-28T01:12:51.013Z,51.43
2017-05-28T01:13:31.521Z,51.82
2017-05-28T01:14:12.011Z,51.6
2017-05-28T01:14:52.497Z,51.7
2017-05-28T01:15:32.985Z,51.72
2017-05-28T01:16:13.483Z,51.34
2017-05-28T01:16:53.989Z,51.5
2017-05-28T01:17:34.461Z,51.24
2017-05-28T01:18:14.965Z,51.21
2017-05-28T01:18:55.494Z,51.7
2017-05-28T01:19:35.990Z,51.62
2017-05-28T01:20:16.514Z,51.62
2017-05-28T01:20:57.624Z,51.79
2017-05-28T01:21:38.114Z,51.41
2017-05-28T01:22:18.587Z,51.98
2017-05-28T01:22:59.076Z,51.98
2017-05-28T01:23:39.555Z,51.98
2017-05-28T01:24:20.129Z,51.6
2017-05-28T01:25:01.287Z,52.08
2017-05-28T01:25:41.782Z,52.37
2017-05-28T01:26:22.273Z,52.18
2017-05-28T01:27:02.767Z,52.47
2017-05-28T01:27:43.227Z,51.7
2017-05-28T01:28:23.721Z,51.5
2017-05-28T01:29:04.212Z,51.79
2017-05-28T01:29:44.703Z,51.79
2017-05-28T01:30:25.201Z,52.27
2017-05-28T01:31:05.681Z,52.37
2017-05-28T01:31:46.186Z,52.95
2017-05-28T01:32:27.299Z,53.23
2017-05-28T01:33:07.768Z,53.33
2017-05-28T01:33:48.240Z,53.53
2017-05-28T01:36:01.009Z,53.53
2017-05-28T01:36:41.436Z,54.36
2017-05-28T01:37:21.880Z,54.17
2017-05-28T01:38:02.453Z,54.27
2017-05-28T01:38:42.909Z,54.08
2017-05-28T01:39:23.404Z,53.98
2017-05-28T01:40:03.853Z,55.04
2017-05-28T01:42:17.247Z,55.23
2017-05-28T01:42:57.782Z,55.33
2017-05-28T01:43:38.275Z,55.52
2017-05-28T01:44:18.774Z,55.23
2017-05-28T01:45:00.040Z,56
2017-05-28T01:45:40.507Z,56
2017-05-28T01:46:21.010Z,56.26
2017-05-28T01:47:01.485Z,56.45
2017-05-28T01:47:41.989Z,56.26
2017-05-28T01:48:22.475Z,56.26
2017-05-28T01:49:02.970Z,56.93
2017-05-28T01:49:43.469Z,57.13
2017-05-28T01:50:23.964Z,57.03
2017-05-28T01:51:04.409Z,57.03
2017-05-28T01:51:44.905Z,56.65
2017-05-28T01:52:26.116Z,57.32
2017-05-28T01:53:06.605Z,56.93
2017-05-28T01:53:47.093Z,56.84
2017-05-28T01:54:27.569Z,57.42
2017-05-28T01:55:08.065Z,57.22
2017-05-28T01:55:49.108Z,57.32
2017-05-28T01:56:29.596Z,57.03
2017-05-28T01:57:10.090Z,57.32
2017-05-28T01:57:50.580Z,57.51
2017-05-28T01:58:31.066Z,57.42
2017-05-28T01:59:11.550Z,57.32
2017-05-28T01:59:52.041Z,57.32
2017-05-28T02:00:33.107Z,57.51
2017-05-28T02:01:13.599Z,57.51
2017-05-28T02:01:54.103Z,58.09
2017-05-28T02:02:35.110Z,58.47
2017-05-28T02:03:15.601Z,58.28
2017-05-28T02:03:56.088Z,58.45
2017-05-28T02:04:37.359Z,59.02
2017-05-28T02:05:17.857Z,58.73
2017-05-28T02:05:58.350Z,58.73
2017-05-28T02:06:38.844Z,59.41
2017-05-28T02:07:19.339Z,59.31
2017-05-28T02:08:00.598Z,59.41
2017-05-28T02:08:41.642Z,59.31
2017-05-28T02:09:22.132Z,59.22
2017-05-28T02:10:02.634Z,59.31
2017-05-28T02:10:43.128Z,59.22
2017-05-28T02:11:24.353Z,59.6
2017-05-28T02:12:04.854Z,59.6
2017-05-28T02:12:45.359Z,60.17
2017-05-28T02:13:25.862Z,60.34
2017-05-28T02:14:07.032Z,60.63
2017-05-28T02:14:47.525Z,61.11
2017-05-28T02:15:28.018Z,61.01
2017-05-28T02:16:09.356Z,61.58
2017-05-28T02:16:49.850Z,62.13
2017-05-28T02:17:31.260Z,61.97
2017-05-28T02:18:11.749Z,61.84
2017-05-28T02:18:52.248Z,62.32
2017-05-28T02:19:32.795Z,62.61
2017-05-28T02:20:13.241Z,62.81
2017-05-28T02:20:53.728Z,62.52
2017-05-28T02:21:34.217Z,62.45
2017-05-28T02:22:14.721Z,62.74
2017-05-28T02:22:55.205Z,62.61
2017-05-28T02:23:35.697Z,62.61
2017-05-28T02:24:16.189Z,62.52
2017-05-28T02:24:56.667Z,63.38
2017-05-28T02:25:37.133Z,63.67
2017-05-28T02:26:17.634Z,63.19
2017-05-28T02:26:58.120Z,63.57
2017-05-28T02:27:38.614Z,63.57
2017-05-28T02:28:19.108Z,63.57
2017-05-28T02:28:59.592Z,63.28
2017-05-28T02:29:40.088Z,63.28
2017-05-28T02:30:20.568Z,62.81
2017-05-28T02:31:01.052Z,62.9
2017-05-28T02:31:42.453Z,62.71
2017-05-28T02:32:24.462Z,62.93
2017-05-28T02:33:04.941Z,63.02
2017-05-28T02:33:45.453Z,63.38
2017-05-28T02:34:25.930Z,63.57
2017-05-28T02:35:06.422Z,64.43
2017-05-28T02:35:46.917Z,64.34
2017-05-28T02:36:27.406Z,64.34
2017-05-28T02:37:07.904Z,64.53
2017-05-28T02:37:48.391Z,64.34
2017-05-28T02:38:28.884Z,64.34
2017-05-28T02:39:09.374Z,64.15
2017-05-28T02:39:49.869Z,64.43
2017-05-28T02:40:30.353Z,64.53
2017-05-28T02:41:10.857Z,64.43
2017-05-28T02:41:51.348Z,64.43
2017-05-28T02:42:31.833Z,64.43
2017-05-28T02:43:13.254Z,64.05
2017-05-28T02:43:54.633Z,63.86
2017-05-28T02:44:35.130Z,63.19
2017-05-28T02:45:15.574Z,63.96
2017-05-28T02:45:56.037Z,64.15
2017-05-28T02:46:36.528Z,63.38
2017-05-28T02:47:16.978Z,63.48
2017-05-28T02:47:57.456Z,63.86
2017-05-28T02:48:37.944Z,63.96
2017-05-28T02:49:18.438Z,64.05
2017-05-28T02:49:58.915Z,63.57
2017-05-28T02:50:39.409Z,64.05
2017-05-28T02:51:19.910Z,64.25
2017-05-28T02:52:00.965Z,64.25
2017-05-28T02:52:41.507Z,63.86
2017-05-28T02:53:21.994Z,64.15
2017-05-28T02:54:02.489Z,64.05
2017-05-28T02:54:43.772Z,64.34
2017-05-28T02:55:24.266Z,64.43
2017-05-28T02:56:05.468Z,64.43
2017-05-28T02:56:45.960Z,64.53
2017-05-28T02:57:26.438Z,64.05
2017-05-28T02:58:06.932Z,64.53
2017-05-28T02:58:47.968Z,64.82
2017-05-28T02:59:29.048Z,64.72
2017-05-28T03:00:10.275Z,64.92
2017-05-28T03:00:50.760Z,64.72
2017-05-28T03:01:31.257Z,64.72
2017-05-28T03:02:11.749Z,64.72
2017-05-28T03:02:52.238Z,64.92
2017-05-28T03:04:49.868Z,64.72
2017-05-28T03:05:30.358Z,64.53
2017-05-28T03:06:10.845Z,64.72
2017-05-28T03:06:51.334Z,65.59
2017-05-28T03:07:31.827Z,66.23
2017-05-28T03:08:12.328Z,66.8
2017-05-28T03:08:52.805Z,66.52
2017-05-28T03:09:33.300Z,66.52
2017-05-28T03:10:14.340Z,67.09
2017-05-28T03:10:54.840Z,67.09
2017-05-28T03:11:35.330Z,67.57
2017-05-28T03:12:15.864Z,67.67
2017-05-28T03:12:56.342Z,68.05
2017-05-28T03:13:36.840Z,68.69
2017-05-28T03:14:17.334Z,68.79
2017-05-28T03:14:57.827Z,69.26
2017-05-28T03:15:38.311Z,69.74
2017-05-28T03:16:18.816Z,69.56
2017-05-28T03:16:59.297Z,69.17
2017-05-28T03:17:39.794Z,69.36
2017-05-28T03:18:20.270Z,69.74
2017-05-28T03:19:01.666Z,69.65
2017-05-28T03:19:42.157Z,69.17
2017-05-28T03:20:22.671Z,69.26
2017-05-28T03:21:03.150Z,69.93
2017-05-28T03:21:43.647Z,69.93
2017-05-28T03:22:24.134Z,70.51
2017-05-28T03:23:04.627Z,70.48
2017-05-28T03:23:45.121Z,71.09
2017-05-28T03:24:25.605Z,70.99
2017-05-28T03:25:06.250Z,70.9
2017-05-28T03:25:46.734Z,71.09
2017-05-28T03:26:27.325Z,71.09
2017-05-28T03:27:07.822Z,70.57
2017-05-28T03:27:48.313Z,70.7
2017-05-28T03:28:28.809Z,69.93
2017-05-28T03:29:09.298Z,70.13
2017-05-28T03:29:49.787Z,69.93
2017-05-28T03:30:30.330Z,69.46
2017-05-28T03:31:10.772Z,69.46
2017-05-28T03:31:51.265Z,69.65
2017-05-28T03:32:31.756Z,69.59
2017-05-28T03:33:12.286Z,69.56
2017-05-28T03:33:52.907Z,70.13
2017-05-28T03:34:33.395Z,70.13
2017-05-28T03:35:13.883Z,70.61
2017-05-28T03:35:54.378Z,70.51
2017-05-28T03:36:34.873Z,70.51
2017-05-28T03:37:15.370Z,70.61
2017-05-28T03:37:55.861Z,70.13
2017-05-28T03:38:36.356Z,69.93
2017-05-28T03:39:16.852Z,69.65
2017-05-28T03:39:57.339Z,69.93
2017-05-28T03:40:37.827Z,69.74
2017-05-28T03:41:18.324Z,70.03
2017-05-28T03:41:58.815Z,70.42
2017-05-28T03:42:39.294Z,71.19
2017-05-28T03:43:19.788Z,71.28
2017-05-28T03:44:00.861Z,71.09
2017-05-28T03:44:41.360Z,70.8
2017-05-28T03:45:21.831Z,70.9
2017-05-28T03:46:02.315Z,70.99
2017-05-28T03:46:42.819Z,70.23
2017-05-28T03:47:23.301Z,70.03
2017-05-28T03:48:03.791Z,70.13
2017-05-28T03:48:44.297Z,69.93
2017-05-28T03:49:24.778Z,70.51
2017-05-28T03:50:05.263Z,70.8
2017-05-28T03:50:45.760Z,71.19
2017-05-28T03:51:26.250Z,70.99
2017-05-28T03:52:06.753Z,71.09
2017-05-28T03:52:47.246Z,71.47
2017-05-28T03:53:27.732Z,71.57
2017-05-28T03:54:08.231Z,71.37
2017-05-28T03:54:48.723Z,71.19
2017-05-28T03:55:29.212Z,71.34
2017-05-28T03:56:09.707Z,71.82
2017-05-28T03:56:50.930Z,72.01
2017-05-28T03:57:31.399Z,72.11
2017-05-28T03:58:11.893Z,72.39
2017-05-28T03:58:52.398Z,72.49
2017-05-28T03:59:32.882Z,72.88
2017-05-28T04:00:13.372Z,73.16
2017-05-28T04:00:53.870Z,73.35
2017-05-28T04:01:34.354Z,73.07
2017-05-28T04:02:14.850Z,72.97
2017-05-28T04:02:55.344Z,72.88
2017-05-28T04:03:35.833Z,73.07
2017-05-28T04:04:16.326Z,73.07
2017-05-28T04:04:56.816Z,72.63
2017-05-28T04:05:38.079Z,72.59
2017-05-28T04:06:18.589Z,72.39
2017-05-28T04:06:59.083Z,72.05
2017-05-28T04:07:39.559Z,71.76
2017-05-28T04:08:20.053Z,71.92
2017-05-28T04:09:01.364Z,71.47
2017-05-28T04:09:41.851Z,71.57
2017-05-28T04:10:22.341Z,71.66
2017-05-28T04:11:02.821Z,71.66
2017-05-28T04:11:43.285Z,71.66
2017-05-28T04:12:23.747Z,71.92
2017-05-28T04:13:04.239Z,71.95
2017-05-28T04:13:44.722Z,72.05
2017-05-28T04:14:25.208Z,72.33
2017-05-28T04:15:05.708Z,72.24
2017-05-28T04:15:46.199Z,71.76
2017-05-28T04:16:27.685Z,71.66
2017-05-28T04:17:08.168Z,71.57
2017-05-28T04:17:48.672Z,71.28
2017-05-28T04:18:29.206Z,71.09
2017-05-28T04:19:09.665Z,71.19
2017-05-28T04:19:50.152Z,71.19
2017-05-28T04:20:30.641Z,71.19
2017-05-28T04:21:11.133Z,70.8
2017-05-28T04:21:52.192Z,70.9
2017-05-28T04:22:33.568Z,70.61
2017-05-28T04:23:13.975Z,70.99
2017-05-28T04:23:54.467Z,70.99
2017-05-28T04:24:35.843Z,70.8
2017-05-28T04:26:33.464Z,70.99
2017-05-28T04:27:13.951Z,71.09
2017-05-28T04:27:54.449Z,71.19
2017-05-28T04:28:34.939Z,71.37
2017-05-28T04:29:15.434Z,71.28
2017-05-28T04:29:55.926Z,72.05
2017-05-28T04:30:36.417Z,72.63
2017-05-28T04:31:16.910Z,72.53
2017-05-28T04:31:57.400Z,72.24
2017-05-28T04:32:37.893Z,71.98
2017-05-28T04:33:18.385Z,71.22
2017-05-28T04:33:58.872Z,71.03
2017-05-28T04:34:39.364Z,71.22
2017-05-28T04:35:19.861Z,71.03
2017-05-28T04:36:00.377Z,70.97
2017-05-28T04:36:40.866Z,69.91
2017-05-28T04:37:21.358Z,69.43
2017-05-28T04:38:01.858Z,69.05
2017-05-28T04:38:42.358Z,68.7
2017-05-28T04:39:22.854Z,67.64
2017-05-28T04:40:03.350Z,66.91
2017-05-28T04:40:44.655Z,66.42
2017-05-28T04:41:25.159Z,65.75
2017-05-28T04:42:06.164Z,64.82
2017-05-28T04:42:46.666Z,64.25
2017-05-28T04:43:27.180Z,63.28
2017-05-28T04:44:07.652Z,63.41
2017-05-28T04:44:48.148Z,62.93
2017-05-28T04:45:28.633Z,62.45
2017-05-28T04:46:09.758Z,62.45
2017-05-28T04:46:50.253Z,62.09
2017-05-28T04:47:30.745Z,61.42
2017-05-28T04:48:11.232Z,61.42
2017-05-28T04:48:51.725Z,61.04
2017-05-28T04:49:32.214Z,60.39
2017-05-28T04:50:12.698Z,60.1
2017-05-28T04:50:53.177Z,59.72
2017-05-28T04:51:33.675Z,59.65
2017-05-28T04:52:14.157Z,58.97
2017-05-28T04:52:54.656Z,59.07
2017-05-28T04:53:35.146Z,58.3
2017-05-28T04:54:15.633Z,58.11
2017-05-28T04:54:56.124Z,58.11
2017-05-28T04:55:36.617Z,57.82
2017-05-28T04:56:17.110Z,57.24
2017-05-28T04:56:57.600Z,56.76
2017-05-28T04:57:38.091Z,56.4
2017-05-28T04:58:18.587Z,56.01
2017-05-28T04:58:59.078Z,55.82
2017-05-28T04:59:39.585Z,55.73
2017-05-28T05:00:20.079Z,55.73
2017-05-28T05:01:00.569Z,55.34
2017-05-28T05:01:41.033Z,55.08
2017-05-28T05:02:21.529Z,55.27
2017-05-28T05:03:02.017Z,55.18
2017-05-28T05:03:42.520Z,54.98
2017-05-28T05:04:23.012Z,54.62
2017-05-28T05:05:04.033Z,54.53
2017-05-28T05:05:44.537Z,53.75
2017-05-28T05:06:25.030Z,53.08
2017-05-28T05:07:05.521Z,53.17
2017-05-28T05:07:46.016Z,52.79
2017-05-28T05:08:26.531Z,53.08
2017-05-28T05:09:07.016Z,53.27
2017-05-28T05:09:48.273Z,52.62
2017-05-28T05:10:29.359Z,52.33
2017-05-28T05:11:09.851Z,52.14
2017-05-28T05:11:51.179Z,52.53
2017-05-28T05:12:31.679Z,52.53
2017-05-28T05:13:12.182Z,52.23
2017-05-28T05:13:52.684Z,52.43
2017-05-28T05:14:33.171Z,52.4
2017-05-28T05:16:50.993Z,51.01
2017-05-28T05:17:31.482Z,51.1
2017-05-28T05:18:11.975Z,51.29
2017-05-28T05:18:52.467Z,50.33
2017-05-28T05:19:32.973Z,51.1
2017-05-28T05:20:13.458Z,51.01
2017-05-28T05:20:53.949Z,51.49
2017-05-28T05:21:34.422Z,51.27
2017-05-28T05:22:15.879Z,50.91
2017-05-28T05:22:56.374Z,50.81
2017-05-28T05:23:36.874Z,50.04
2017-05-28T05:24:17.367Z,49.58
2017-05-28T05:24:57.861Z,49.39
2017-05-28T05:25:38.363Z,49.32
2017-05-28T05:26:18.855Z,49.02
2017-05-28T05:26:59.379Z,48.64
2017-05-28T05:27:39.853Z,48.27
2017-05-28T05:28:20.321Z,47.99
2017-05-28T05:29:00.821Z,48.08
2017-05-28T05:29:41.312Z,48.35
2017-05-28T05:30:21.806Z,49.32
2017-05-28T05:31:02.975Z,48.61
2017-05-28T05:31:43.469Z,48.54
2017-05-28T05:32:23.970Z,48.64
2017-05-28T05:33:06.196Z,48.47
2017-05-28T05:33:46.691Z,48.18
2017-05-28T05:34:27.175Z,47.02
2017-05-28T05:35:07.672Z,47.31
2017-05-28T05:35:49.052Z,46.92
2017-05-28T05:36:29.538Z,47.41
2017-05-28T05:37:10.037Z,46.92
2017-05-28T05:37:51.044Z,46.92
2017-05-28T05:38:31.538Z,46.83
2017-05-28T05:39:12.026Z,46.17
2017-05-28T05:39:52.542Z,45.98
2017-05-28T05:40:33.559Z,45.9
2017-05-28T05:41:14.983Z,45.32
2017-05-28T05:41:55.484Z,45.22
2017-05-28T05:42:36.700Z,44.84
2017-05-28T05:43:17.191Z,45.03
2017-05-28T05:43:57.690Z,45.03
2017-05-28T05:44:38.194Z,44.35
2017-05-28T05:45:18.652Z,44.47
2017-05-28T05:45:59.126Z,43.79
2017-05-28T05:46:41.190Z,43.5
2017-05-28T05:47:21.653Z,42.94
2017-05-28T05:48:02.887Z,42.36
2017-05-28T05:48:43.381Z,42.36
2017-05-28T05:49:23.880Z,42.65
2017-05-28T05:50:04.377Z,42.85
2017-05-28T05:50:44.840Z,42.46
2017-05-28T05:51:25.330Z,42.46
2017-05-28T05:52:05.826Z,42.17
2017-05-28T05:52:46.986Z,41.31
2017-05-28T05:53:28.482Z,40.73
2017-05-28T05:54:09.703Z,40.81
2017-05-28T05:54:50.203Z,40.73
2017-05-28T05:55:30.710Z,40.25
2017-05-28T05:56:11.205Z,40.17
2017-05-28T05:56:51.692Z,39.61
2017-05-28T05:57:32.189Z,39.12
2017-05-28T05:58:12.699Z,38.56
2017-05-28T05:58:53.196Z,37.78
2017-05-28T05:59:33.678Z,37.7
2017-05-28T06:00:14.165Z,37.02
2017-05-28T06:00:54.651Z,36.93
2017-05-28T06:03:12.476Z,35.88
2017-05-28T06:03:52.977Z,35.6
2017-05-28T06:04:33.471Z,35.6
2017-05-28T06:05:13.983Z,35.03
2017-05-28T06:05:54.488Z,34.55
2017-05-28T06:06:34.981Z,34.45
2017-05-28T06:07:15.469Z,34.84
2017-05-28T06:07:55.961Z,34.55
2017-05-28T06:08:36.453Z,34.45
2017-05-28T06:09:17.452Z,34.55
2017-05-28T06:09:57.942Z,34.47
2017-05-28T06:10:38.444Z,34
2017-05-28T06:11:18.931Z,33.69
2017-05-28T06:11:59.427Z,34.08
2017-05-28T06:12:39.910Z,33.61
2017-05-28T06:13:20.417Z,33.51
2017-05-28T06:14:00.906Z,34.47
2017-05-28T06:14:41.416Z,33.61
2017-05-28T06:15:21.922Z,33.14
2017-05-28T06:16:02.419Z,33.04
2017-05-28T06:16:42.956Z,33.51
2017-05-28T06:17:24.273Z,32.53
2017-05-28T06:18:05.457Z,32.55
2017-05-28T06:18:45.949Z,32.06
2017-05-28T06:19:26.453Z,31.77
2017-05-28T06:20:06.939Z,31.22
2017-05-28T06:20:47.452Z,30.54
2017-05-28T06:21:27.939Z,30.34
2017-05-28T06:22:08.453Z,29.96
2017-05-28T06:22:48.959Z,29.67
2017-05-28T06:23:29.476Z,29.83
2017-05-28T06:24:09.974Z,30.52
2017-05-28T06:24:50.461Z,31.76
2017-05-28T06:25:30.950Z,31.77
2017-05-28T06:26:11.441Z,31.96
2017-05-28T06:26:51.927Z,31.77
2017-05-28T06:27:32.420Z,31.3
2017-05-28T06:28:12.921Z,30.81
2017-05-28T06:28:53.402Z,30.81
2017-05-28T06:29:33.899Z,30.91
2017-05-28T06:30:14.398Z,30.44
2017-05-28T06:30:54.893Z,29.47
2017-05-28T06:31:35.396Z,28.79
2017-05-28T06:32:15.892Z,28.42
2017-05-28T06:32:56.965Z,29.08
2017-05-28T06:33:37.466Z,28.99
2017-05-28T06:34:17.952Z,29.28
2017-05-28T06:34:58.458Z,28.89
2017-05-28T06:35:38.945Z,29.27
2017-05-28T06:36:19.444Z,29.07
2017-05-28T06:36:59.930Z,30.32
2017-05-28T06:37:40.417Z,30.34
2017-05-28T06:38:20.918Z,30.15
2017-05-28T06:39:01.407Z,29.47
2017-05-28T06:39:41.903Z,29.36
2017-05-28T06:40:22.390Z,30.73
2017-05-28T06:41:02.883Z,30.83
2017-05-28T06:41:43.384Z,31.66
2017-05-28T06:42:23.874Z,31.28
2017-05-28T06:43:04.366Z,30.91
2017-05-28T06:43:44.853Z,30.44
2017-05-28T06:44:25.335Z,29.85
2017-05-28T06:45:05.838Z,29.1
2017-05-28T06:45:46.332Z,28.33
2017-05-28T06:46:26.830Z,28.14
2017-05-28T06:47:07.316Z,27.86
2017-05-28T06:47:47.809Z,27.67
2017-05-28T06:48:28.309Z,27.28
2017-05-28T06:49:08.804Z,27.58
2017-05-28T06:49:49.316Z,26.81
2017-05-28T06:50:29.810Z,27.08
2017-05-28T06:51:10.333Z,27.27
2017-05-28T06:51:51.384Z,27.94
2017-05-28T06:52:33.703Z,27.55
2017-05-28T06:53:14.177Z,28.3
2017-05-28T06:53:54.671Z,28.81
2017-05-28T06:54:35.216Z,29.08
2017-05-28T06:55:15.642Z,28.91
2017-05-28T06:55:56.097Z,29.08
2017-05-28T06:56:36.599Z,29.56
2017-05-28T06:57:17.083Z,30.42
2017-05-28T06:57:57.585Z,31.3
2017-05-28T06:58:38.094Z,31.3
2017-05-28T06:59:18.567Z,30.71
2017-05-28T06:59:59.062Z,30.71
2017-05-28T07:00:40.077Z,30.54
2017-05-28T07:01:20.587Z,30.34
2017-05-28T07:02:01.083Z,30.71
2017-05-28T07:02:41.582Z,30.81
2017-05-28T07:03:22.083Z,30.54
2017-05-28T07:04:03.199Z,31.02
2017-05-28T07:06:16.009Z,31.59
2017-05-28T07:06:56.517Z,31.22
2017-05-28T07:07:37.015Z,31.48
2017-05-28T07:08:17.519Z,32.53
2017-05-28T07:08:58.015Z,33.59
2017-05-28T07:09:38.488Z,33.69
2017-05-28T07:10:18.984Z,32.94
2017-05-28T07:12:16.618Z,31.22
2017-05-28T07:12:57.135Z,30.45
2017-05-28T07:13:37.628Z,30.26
2017-05-28T07:14:18.118Z,30.63
2017-05-28T07:14:58.629Z,30.16
2017-05-28T07:15:39.123Z,30.06
2017-05-28T07:16:19.614Z,29.69
2017-05-28T07:17:00.118Z,29.03
2017-05-28T07:17:40.603Z,27.97
2017-05-28T07:18:21.101Z,27.95
2017-05-28T07:19:01.587Z,27.49
2017-05-28T07:19:42.079Z,27.21
2017-05-28T07:20:22.571Z,27.1
2017-05-28T07:21:04.023Z,27.01
2017-05-28T07:21:44.546Z,27.77
2017-05-28T07:22:25.038Z,27.58
2017-05-28T07:23:05.515Z,27.78
2017-05-28T07:23:46.024Z,27.95
2017-05-28T07:24:26.540Z,27.69
2017-05-28T07:25:07.039Z,27.21
2017-05-28T07:25:47.529Z,26.35
2017-05-28T07:26:28.022Z,25.98
2017-05-28T07:27:08.523Z,25.31
2017-05-28T07:27:50.516Z,25.1
2017-05-28T07:28:31.011Z,25.2
2017-05-28T07:29:11.497Z,24.52
2017-05-28T07:29:52.051Z,26.33
2017-05-28T07:30:33.196Z,27.09
2017-05-28T07:31:13.756Z,26.25
2017-05-28T07:31:54.255Z,25.1
2017-05-28T07:32:34.763Z,25.1
2017-05-28T07:33:15.260Z,25.49
2017-05-28T07:33:55.771Z,24.43
2017-05-28T07:34:36.279Z,23.67
2017-05-28T07:35:16.790Z,23.66
2017-05-28T07:35:57.280Z,22.49
2017-05-28T07:36:37.832Z,22.69
2017-05-28T07:37:18.443Z,22.31
2017-05-28T07:37:58.965Z,22.52
2017-05-28T07:38:40.115Z,22.22
2017-05-28T07:39:20.689Z,22.31
2017-05-28T07:40:01.183Z,21.92
2017-05-28T07:40:41.687Z,22.41
2017-05-28T07:41:22.181Z,23.06
2017-05-28T07:42:02.668Z,23.66
2017-05-28T07:42:44.167Z,24.04
2017-05-28T07:43:24.734Z,24.52
2017-05-28T07:44:05.254Z,24.33
2017-05-28T07:44:46.609Z,24.42
2017-05-28T07:45:27.120Z,24.73
2017-05-28T07:46:07.626Z,24.43
2017-05-28T07:46:48.122Z,24.05
2017-05-28T07:47:28.625Z,24.43
2017-05-28T07:48:09.623Z,24.43
2017-05-28T07:48:50.111Z,24.69
2017-05-28T07:49:30.605Z,24.63
2017-05-28T07:50:11.109Z,24.15
2017-05-28T07:50:51.607Z,23.86
2017-05-28T07:51:32.107Z,23.47
2017-05-28T07:52:13.430Z,24.04
2017-05-28T07:52:53.928Z,23.57
2017-05-28T07:53:34.414Z,23.86
2017-05-28T07:54:15.878Z,23.38
2017-05-28T07:54:56.389Z,23.38
2017-05-28T07:55:36.881Z,23.36
2017-05-28T07:56:17.378Z,23.67
2017-05-28T07:56:58.719Z,23.38
2017-05-28T07:57:39.206Z,24.22
2017-05-28T07:58:19.707Z,23.75
2017-05-28T07:59:00.236Z,23.65
2017-05-28T07:59:40.689Z,24.33
2017-05-28T08:00:21.240Z,24.43
2017-05-28T08:01:01.734Z,24.04
2017-05-28T08:01:42.233Z,23
2017-05-28T08:02:22.715Z,22.33
2017-05-28T08:03:03.220Z,21.84
2017-05-28T08:03:43.709Z,21.15
2017-05-28T08:04:24.234Z,21.17
2017-05-28T08:05:04.725Z,21.17
2017-05-28T08:05:45.229Z,20.88
2017-05-28T08:06:25.746Z,21.15
2017-05-28T08:07:06.206Z,22.52
2017-05-28T08:07:46.699Z,24.42
2017-05-28T08:08:27.193Z,23.39
2017-05-28T08:09:07.685Z,22.72
2017-05-28T08:09:48.178Z,21.66
2017-05-28T08:10:28.675Z,20.98
2017-05-28T08:11:09.190Z,21.36
2017-05-28T08:11:49.682Z,21.36
2017-05-28T08:12:30.208Z,21.46
2017-05-28T08:13:10.672Z,21.76
2017-05-28T08:13:52.125Z,21.76
2017-05-28T08:14:32.610Z,20.7
2017-05-28T08:15:13.046Z,20.97
2017-05-28T08:15:53.554Z,20.79
2017-05-28T08:16:34.043Z,20.51
2017-05-28T08:17:14.548Z,20.99
2017-05-28T08:17:55.722Z,20.88
2017-05-28T08:18:36.217Z,21.08
2017-05-28T08:20:54.053Z,20.78
2017-05-28T08:21:34.557Z,20.98
2017-05-28T08:22:15.059Z,21.08
2017-05-28T08:22:55.564Z,20.8
2017-05-28T08:23:36.069Z,20.3
2017-05-28T08:24:16.563Z,20.31
2017-05-28T08:24:57.060Z,20.41
2017-05-28T08:25:37.564Z,19.74
2017-05-28T08:26:18.058Z,19.64
2017-05-28T08:26:58.588Z,19.73
2017-05-28T08:27:39.078Z,19.82
2017-05-28T08:28:19.576Z,20.03
2017-05-28T08:29:00.057Z,20.31
2017-05-28T08:29:40.554Z,19.23
2017-05-28T08:30:21.034Z,19.72
2017-05-28T08:31:01.540Z,19.82
2017-05-28T08:31:42.032Z,19.63
2017-05-28T08:32:23.092Z,19.82
2017-05-28T08:33:03.569Z,19.93
2017-05-28T08:33:44.033Z,18.85
2017-05-28T08:34:24.489Z,18.86
2017-05-28T08:35:04.998Z,18.88
2017-05-28T08:35:45.409Z,19.23
2017-05-28T08:36:25.865Z,18.87
2017-05-28T08:38:23.523Z,21.26
2017-05-28T08:39:04.034Z,22.05
2017-05-28T08:39:44.512Z,22.52
2017-05-28T08:40:25.010Z,22.52
2017-05-28T08:41:05.491Z,21.76
2017-05-28T08:41:46.000Z,21.28
2017-05-28T08:42:26.494Z,20.62
2017-05-28T08:43:06.985Z,19.35
2017-05-28T08:43:47.498Z,19.34
2017-05-28T08:44:27.996Z,18.76
2017-05-28T08:45:08.500Z,19.15
2017-05-28T08:45:49.005Z,18.56
2017-05-28T08:47:46.813Z,18.76
2017-05-28T08:48:27.255Z,18.18
2017-05-28T08:49:08.575Z,17.51
2017-05-28T08:49:49.018Z,16.93
2017-05-28T08:50:29.513Z,16.44
2017-05-28T08:52:47.338Z,16.25
2017-05-28T08:53:27.822Z,15.28
2017-05-28T08:54:08.310Z,15.94
2017-05-28T08:54:48.809Z,17.7
2017-05-28T08:55:29.304Z,17.91
2017-05-28T08:56:09.800Z,16.84
2017-05-28T08:56:50.291Z,16.16
2017-05-28T08:57:30.797Z,15.77
2017-05-28T08:58:11.306Z,15.97
2017-05-28T08:58:51.790Z,15.48
2017-05-28T08:59:33.002Z,14.61
2017-05-28T09:00:13.512Z,14.7
2017-05-28T09:00:53.989Z,14.22
2017-05-28T09:01:34.488Z,14.11
2017-05-28T09:02:14.985Z,14.9
2017-05-28T09:02:55.462Z,15.76
2017-05-28T09:03:36.612Z,15.37